AFL7801 ULLI-UUEE
Flight info
| Callsign | AFL7801 |
|---|---|
| Flight time | N/A |
| Altitude | 37000 |
| Route | SUGIN1A/28R SUGIN T873 NIRGI T73 NAMIN NAMIN3E |
| Aircraft | A320/M-SDE3FGHIRWY/LB1 |
Departure
| Time | 2026-05-04 19:20 |
|---|---|
| Airport | Pulkovo Airport (ULLI) |
Arrival
| Time | N/A |
|---|---|
| Airport | Sheremetyevo International Airport (UUEE) |
| Time | Latitude | Longitude | Altitude | Speed | Heading |
|---|---|---|---|---|---|
| 2026-05-04 18:46 | 59.79989 | 30.26433 | 85 ft | 0 kts | 106° |
| 2026-05-04 19:10 | 59.79984 | 30.26477 | 86 ft | 4 kts | 92° |
| 2026-05-04 19:11 | 59.79996 | 30.26522 | 86 ft | 6 kts | 43° |
| 2026-05-04 19:11 | 59.80072 | 30.26570 | 82 ft | 15 kts | 17° |
| 2026-05-04 19:11 | 59.80175 | 30.26632 | 83 ft | 16 kts | 17° |
| 2026-05-04 19:11 | 59.80281 | 30.26695 | 84 ft | 16 kts | 16° |
| 2026-05-04 19:12 | 59.80377 | 30.26752 | 81 ft | 11 kts | 19° |
| 2026-05-04 19:12 | 59.80351 | 30.27161 | 81 ft | 27 kts | 106° |
| 2026-05-04 19:12 | 59.80294 | 30.27543 | 81 ft | 32 kts | 107° |
| 2026-05-04 19:13 | 59.80241 | 30.27898 | 83 ft | 27 kts | 107° |
| 2026-05-04 19:13 | 59.80185 | 30.28266 | 82 ft | 23 kts | 107° |
| 2026-05-04 19:13 | 59.80144 | 30.28547 | 74 ft | 18 kts | 106° |
| 2026-05-04 19:13 | 59.80119 | 30.28715 | 72 ft | 13 kts | 107° |
| 2026-05-04 19:14 | 59.80092 | 30.28898 | 76 ft | 13 kts | 107° |
| 2026-05-04 19:14 | 59.80065 | 30.29075 | 75 ft | 14 kts | 107° |
| 2026-05-04 19:14 | 59.80033 | 30.29291 | 77 ft | 16 kts | 107° |
| 2026-05-04 19:14 | 59.80005 | 30.29476 | 74 ft | 9 kts | 107° |
| 2026-05-04 19:15 | 59.79988 | 30.29590 | 70 ft | 8 kts | 107° |
| 2026-05-04 19:15 | 59.79974 | 30.29680 | 77 ft | 2 kts | 107° |
| 2026-05-04 19:15 | 59.79973 | 30.29686 | 77 ft | 0 kts | 107° |
| 2026-05-04 19:15 | 59.79973 | 30.29688 | 77 ft | 1 kts | 107° |
| 2026-05-04 19:16 | 59.79963 | 30.29752 | 73 ft | 5 kts | 107° |
| 2026-05-04 19:16 | 59.79951 | 30.29828 | 73 ft | 6 kts | 107° |
| 2026-05-04 19:16 | 59.79939 | 30.29918 | 68 ft | 9 kts | 102° |
| 2026-05-04 19:16 | 59.79945 | 30.30037 | 69 ft | 9 kts | 59° |
| 2026-05-04 19:17 | 59.79982 | 30.30120 | 74 ft | 7 kts | 48° |
| 2026-05-04 19:17 | 59.79994 | 30.30147 | 67 ft | 0 kts | 48° |
| 2026-05-04 19:18 | 59.80004 | 30.30168 | 67 ft | 10 kts | 48° |
| 2026-05-04 19:18 | 59.80060 | 30.30273 | 71 ft | 9 kts | 32° |
| 2026-05-04 19:18 | 59.80113 | 30.30262 | 72 ft | 7 kts | 316° |
| 2026-05-04 19:19 | 59.80127 | 30.30191 | 74 ft | 1 kts | 287° |
| 2026-05-04 19:19 | 59.80127 | 30.30190 | 74 ft | 0 kts | 287° |
| 2026-05-04 19:20 | 59.80128 | 30.30186 | 74 ft | 6 kts | 287° |
| 2026-05-04 19:20 | 59.80234 | 30.29477 | 69 ft | 99 kts | 287° |
| 2026-05-04 19:20 | 59.80504 | 30.27673 | 102 ft | 167 kts | 285° |
| 2026-05-04 19:20 | 59.80816 | 30.25369 | 815 ft | 174 kts | 285° |
| 2026-05-04 19:21 | 59.81194 | 30.23107 | 1587 ft | 174 kts | 288° |
| 2026-05-04 19:21 | 59.81634 | 30.20722 | 1981 ft | 192 kts | 288° |
| 2026-05-04 19:21 | 59.82102 | 30.18090 | 2496 ft | 213 kts | 288° |
| 2026-05-04 19:21 | 59.82585 | 30.15222 | 3198 ft | 219 kts | 284° |
| 2026-05-04 19:22 | 59.82989 | 30.12343 | 3470 ft | 212 kts | 282° |
| 2026-05-04 19:22 | 59.83350 | 30.09525 | 3569 ft | 208 kts | 282° |
| 2026-05-04 19:22 | 59.83716 | 30.06685 | 3923 ft | 218 kts | 281° |
| 2026-05-04 19:22 | 59.84100 | 30.03780 | 4987 ft | 215 kts | 281° |
| 2026-05-04 19:23 | 59.84342 | 30.00875 | 5932 ft | 213 kts | 263° |
| 2026-05-04 19:23 | 59.83816 | 29.98146 | 6753 ft | 217 kts | 233° |
| 2026-05-04 19:23 | 59.82564 | 29.96395 | 7609 ft | 230 kts | 205° |
| 2026-05-04 19:23 | 59.81017 | 29.95478 | 8522 ft | 234 kts | 202° |
| 2026-05-04 19:24 | 59.79445 | 29.94598 | 9425 ft | 236 kts | 202° |
| 2026-05-04 19:24 | 59.77859 | 29.93711 | 10252 ft | 238 kts | 203° |
| 2026-05-04 19:24 | 59.76256 | 29.92812 | 11074 ft | 240 kts | 201° |
| 2026-05-04 19:24 | 59.74546 | 29.92667 | 11861 ft | 260 kts | 173° |
| 2026-05-04 19:25 | 59.72908 | 29.94555 | 12483 ft | 295 kts | 142° |
| 2026-05-04 19:25 | 59.71707 | 29.98153 | 12751 ft | 332 kts | 120° |
| 2026-05-04 19:25 | 59.70896 | 30.02655 | 12951 ft | 361 kts | 110° |
| 2026-05-04 19:25 | 59.70292 | 30.07660 | 13230 ft | 383 kts | 106° |
| 2026-05-04 19:26 | 59.69759 | 30.12898 | 13791 ft | 391 kts | 104° |
| 2026-05-04 19:26 | 59.69544 | 30.18345 | 14421 ft | 401 kts | 91° |
| 2026-05-04 19:26 | 59.69623 | 30.23888 | 15084 ft | 404 kts | 93° |
| 2026-05-04 19:26 | 59.69586 | 30.29473 | 15748 ft | 407 kts | 95° |
| 2026-05-04 19:27 | 59.69344 | 30.35072 | 16384 ft | 407 kts | 105° |
| 2026-05-04 19:27 | 59.68687 | 30.40522 | 17036 ft | 409 kts | 109° |
| 2026-05-04 19:27 | 59.68031 | 30.46027 | 17702 ft | 412 kts | 108° |
| 2026-05-04 19:27 | 59.67413 | 30.51591 | 18277 ft | 416 kts | 107° |
| 2026-05-04 19:28 | 59.66823 | 30.57163 | 18846 ft | 419 kts | 107° |
| 2026-05-04 19:28 | 59.66234 | 30.62826 | 19422 ft | 422 kts | 107° |
| 2026-05-04 19:28 | 59.65633 | 30.68600 | 19994 ft | 424 kts | 107° |
| 2026-05-04 19:28 | 59.65075 | 30.74291 | 20544 ft | 428 kts | 105° |
| 2026-05-04 19:29 | 59.64577 | 30.80104 | 21088 ft | 431 kts | 104° |
| 2026-05-04 19:29 | 59.64116 | 30.85978 | 21624 ft | 434 kts | 104° |
| 2026-05-04 19:29 | 59.63664 | 30.91903 | 22146 ft | 437 kts | 104° |
| 2026-05-04 19:29 | 59.63200 | 30.97867 | 22668 ft | 439 kts | 104° |
| 2026-05-04 19:30 | 59.62718 | 31.03845 | 23181 ft | 442 kts | 104° |
| 2026-05-04 19:30 | 59.62219 | 31.09859 | 23597 ft | 445 kts | 105° |
| 2026-05-04 19:30 | 59.61706 | 31.15901 | 24025 ft | 447 kts | 105° |
| 2026-05-04 19:30 | 59.61179 | 31.21978 | 24429 ft | 450 kts | 105° |
| 2026-05-04 19:31 | 59.60646 | 31.28071 | 24826 ft | 452 kts | 105° |
| 2026-05-04 19:31 | 59.60105 | 31.34205 | 25224 ft | 455 kts | 105° |
| 2026-05-04 19:31 | 59.59560 | 31.40382 | 25610 ft | 458 kts | 105° |
| 2026-05-04 19:31 | 59.59015 | 31.46597 | 25990 ft | 460 kts | 105° |
| 2026-05-04 19:32 | 59.58466 | 31.52857 | 26367 ft | 463 kts | 105° |
| 2026-05-04 19:32 | 59.57913 | 31.59144 | 26740 ft | 466 kts | 105° |
| 2026-05-04 19:32 | 59.57356 | 31.65442 | 27109 ft | 468 kts | 105° |
| 2026-05-04 19:32 | 59.56788 | 31.71797 | 27475 ft | 471 kts | 105° |
| 2026-05-04 19:33 | 59.56212 | 31.78172 | 27839 ft | 474 kts | 105° |
| 2026-05-04 19:33 | 59.55636 | 31.84499 | 28190 ft | 476 kts | 105° |
| 2026-05-04 19:33 | 59.55042 | 31.90946 | 28533 ft | 479 kts | 106° |
| 2026-05-04 19:33 | 59.54441 | 31.97433 | 28860 ft | 481 kts | 106° |
| 2026-05-04 19:34 | 59.53625 | 32.03802 | 29173 ft | 477 kts | 115° |
| 2026-05-04 19:34 | 59.52342 | 32.09775 | 29490 ft | 471 kts | 124° |
| 2026-05-04 19:34 | 59.50636 | 32.15231 | 29780 ft | 465 kts | 134° |
| 2026-05-04 19:34 | 59.48571 | 32.20064 | 30038 ft | 458 kts | 142° |
| 2026-05-04 19:35 | 59.46309 | 32.24495 | 30293 ft | 459 kts | 143° |
| 2026-05-04 19:35 | 59.44033 | 32.28930 | 30546 ft | 461 kts | 143° |
| 2026-05-04 19:35 | 59.41743 | 32.33388 | 30829 ft | 463 kts | 143° |
| 2026-05-04 19:35 | 59.39457 | 32.37839 | 31196 ft | 462 kts | 143° |
| 2026-05-04 19:36 | 59.37179 | 32.42271 | 31551 ft | 462 kts | 143° |
| 2026-05-04 19:36 | 59.34892 | 32.46710 | 31902 ft | 461 kts | 143° |
| 2026-05-04 19:36 | 59.32638 | 32.51074 | 32247 ft | 461 kts | 143° |
| 2026-05-04 19:36 | 59.30355 | 32.55486 | 32597 ft | 461 kts | 143° |
| 2026-05-04 19:37 | 59.28069 | 32.59888 | 32930 ft | 461 kts | 143° |
| 2026-05-04 19:37 | 59.25780 | 32.64286 | 33280 ft | 461 kts | 143° |
| 2026-05-04 19:37 | 59.23489 | 32.68677 | 33620 ft | 461 kts | 143° |
| 2026-05-04 19:37 | 59.21195 | 32.73063 | 33926 ft | 461 kts | 143° |
| 2026-05-04 19:38 | 59.18901 | 32.77444 | 34215 ft | 461 kts | 143° |
| 2026-05-04 19:38 | 59.16604 | 32.81829 | 34488 ft | 461 kts | 143° |
| 2026-05-04 19:38 | 59.14306 | 32.86202 | 34752 ft | 462 kts | 143° |
| 2026-05-04 19:38 | 59.12004 | 32.90573 | 35016 ft | 462 kts | 143° |
| 2026-05-04 19:39 | 59.09697 | 32.94944 | 35272 ft | 462 kts | 143° |
| 2026-05-04 19:39 | 59.07392 | 32.99303 | 35528 ft | 463 kts | 142° |
| 2026-05-04 19:39 | 59.05079 | 33.03663 | 35769 ft | 463 kts | 142° |
| 2026-05-04 19:39 | 59.02763 | 33.08016 | 36010 ft | 463 kts | 142° |
| 2026-05-04 19:40 | 59.00446 | 33.12364 | 36247 ft | 463 kts | 142° |
| 2026-05-04 19:40 | 58.98132 | 33.16701 | 36471 ft | 464 kts | 142° |
| 2026-05-04 19:40 | 58.95809 | 33.21050 | 36674 ft | 464 kts | 142° |
| 2026-05-04 19:41 | 58.91167 | 33.29727 | 36715 ft | 463 kts | 142° |
| 2026-05-04 19:41 | 58.86514 | 33.38385 | 36718 ft | 463 kts | 142° |
| 2026-05-04 19:42 | 58.81903 | 33.46946 | 36716 ft | 463 kts | 142° |
| 2026-05-04 19:42 | 58.77253 | 33.55520 | 36713 ft | 462 kts | 142° |
| 2026-05-04 19:43 | 58.72593 | 33.64075 | 36712 ft | 463 kts | 142° |
| 2026-05-04 19:43 | 58.68684 | 33.71231 | 36706 ft | 463 kts | 142° |
| 2026-05-04 19:44 | 58.64043 | 33.79717 | 36705 ft | 463 kts | 142° |
| 2026-05-04 19:44 | 58.59373 | 33.88219 | 36699 ft | 462 kts | 142° |
| 2026-05-04 19:45 | 58.54694 | 33.96683 | 36705 ft | 462 kts | 142° |
| 2026-05-04 19:45 | 58.50005 | 34.05129 | 36701 ft | 462 kts | 142° |
| 2026-05-04 19:46 | 58.45320 | 34.13554 | 36696 ft | 463 kts | 142° |
| 2026-05-04 19:46 | 58.40621 | 34.21954 | 36699 ft | 462 kts | 142° |
| 2026-05-04 19:47 | 58.35915 | 34.30334 | 36697 ft | 463 kts | 142° |
| 2026-05-04 19:47 | 58.31241 | 34.38647 | 36696 ft | 463 kts | 142° |
| 2026-05-04 19:48 | 58.26522 | 34.46994 | 36697 ft | 463 kts | 142° |
| 2026-05-04 19:48 | 58.21801 | 34.55317 | 36701 ft | 463 kts | 142° |
| 2026-05-04 19:49 | 58.17010 | 34.63473 | 36708 ft | 461 kts | 144° |
| 2026-05-04 19:49 | 58.12075 | 34.71197 | 36717 ft | 460 kts | 146° |
| 2026-05-04 19:50 | 58.07141 | 34.78782 | 36719 ft | 460 kts | 146° |
| 2026-05-04 19:50 | 58.02202 | 34.86493 | 36719 ft | 460 kts | 145° |
| 2026-05-04 19:51 | 57.97294 | 34.94237 | 36721 ft | 460 kts | 144° |
| 2026-05-04 19:51 | 57.92381 | 35.01958 | 36724 ft | 459 kts | 145° |
| 2026-05-04 19:52 | 57.87460 | 35.09623 | 36731 ft | 459 kts | 145° |
| 2026-05-04 19:52 | 57.82520 | 35.17261 | 36737 ft | 459 kts | 145° |
| 2026-05-04 19:53 | 57.77590 | 35.24858 | 36743 ft | 458 kts | 145° |
| 2026-05-04 19:53 | 57.72693 | 35.32387 | 36745 ft | 458 kts | 145° |
| 2026-05-04 19:54 | 57.67761 | 35.39960 | 36748 ft | 458 kts | 145° |
| 2026-05-04 19:54 | 57.62830 | 35.47513 | 36750 ft | 458 kts | 145° |
| 2026-05-04 19:55 | 57.57920 | 35.54988 | 36757 ft | 457 kts | 145° |
| 2026-05-04 19:55 | 57.52988 | 35.62496 | 36547 ft | 458 kts | 144° |
| 2026-05-04 19:55 | 57.50524 | 35.66258 | 35996 ft | 459 kts | 144° |
| 2026-05-04 19:56 | 57.48043 | 35.70033 | 35124 ft | 462 kts | 145° |
| 2026-05-04 19:56 | 57.45538 | 35.73832 | 34267 ft | 467 kts | 145° |
| 2026-05-04 19:56 | 57.43009 | 35.77654 | 33318 ft | 470 kts | 145° |
| 2026-05-04 19:56 | 57.40446 | 35.81506 | 32311 ft | 475 kts | 145° |
| 2026-05-04 19:57 | 57.37905 | 35.85326 | 31811 ft | 467 kts | 145° |
| 2026-05-04 19:57 | 57.35386 | 35.89116 | 31158 ft | 464 kts | 145° |
| 2026-05-04 19:57 | 57.32886 | 35.92871 | 30523 ft | 460 kts | 145° |
| 2026-05-04 19:57 | 57.30405 | 35.96593 | 29904 ft | 457 kts | 145° |
| 2026-05-04 19:58 | 57.27946 | 36.00278 | 29234 ft | 453 kts | 145° |
| 2026-05-04 19:58 | 57.25541 | 36.03874 | 28643 ft | 447 kts | 145° |
| 2026-05-04 19:58 | 57.23130 | 36.07469 | 28044 ft | 443 kts | 145° |
| 2026-05-04 19:58 | 57.20741 | 36.11024 | 27463 ft | 438 kts | 145° |
| 2026-05-04 19:59 | 57.18378 | 36.14533 | 26880 ft | 434 kts | 145° |
| 2026-05-04 19:59 | 57.16032 | 36.18004 | 26309 ft | 430 kts | 145° |
| 2026-05-04 19:59 | 57.13710 | 36.21435 | 25754 ft | 426 kts | 145° |
| 2026-05-04 19:59 | 57.11405 | 36.24841 | 25217 ft | 422 kts | 145° |
| 2026-05-04 20:00 | 57.09124 | 36.28208 | 24682 ft | 418 kts | 145° |
| 2026-05-04 20:00 | 57.06859 | 36.31538 | 24177 ft | 414 kts | 145° |
| 2026-05-04 20:00 | 57.04617 | 36.34826 | 23655 ft | 411 kts | 145° |
| 2026-05-04 20:00 | 57.02388 | 36.38091 | 23132 ft | 408 kts | 145° |
| 2026-05-04 20:01 | 57.00180 | 36.41305 | 22613 ft | 403 kts | 145° |
| 2026-05-04 20:01 | 56.97993 | 36.44467 | 22130 ft | 398 kts | 145° |
| 2026-05-04 20:01 | 56.95828 | 36.47582 | 21650 ft | 394 kts | 146° |
| 2026-05-04 20:01 | 56.93704 | 36.50630 | 21150 ft | 391 kts | 146° |
| 2026-05-04 20:02 | 56.91570 | 36.53687 | 20661 ft | 388 kts | 146° |
| 2026-05-04 20:02 | 56.89447 | 36.56727 | 20150 ft | 386 kts | 145° |
| 2026-05-04 20:02 | 56.87342 | 36.59748 | 19650 ft | 384 kts | 145° |
| 2026-05-04 20:02 | 56.85243 | 36.62773 | 19138 ft | 383 kts | 145° |
| 2026-05-04 20:03 | 56.83156 | 36.65791 | 18617 ft | 382 kts | 145° |
| 2026-05-04 20:03 | 56.81077 | 36.68796 | 18107 ft | 381 kts | 145° |
| 2026-05-04 20:03 | 56.78995 | 36.71803 | 17544 ft | 380 kts | 144° |
| 2026-05-04 20:03 | 56.76941 | 36.74772 | 17256 ft | 371 kts | 144° |
| 2026-05-04 20:04 | 56.74947 | 36.77649 | 16991 ft | 363 kts | 145° |
| 2026-05-04 20:04 | 56.72971 | 36.80486 | 16560 ft | 360 kts | 145° |
| 2026-05-04 20:04 | 56.71086 | 36.83450 | 16118 ft | 359 kts | 138° |
| 2026-05-04 20:04 | 56.69338 | 36.86618 | 15686 ft | 357 kts | 138° |
| 2026-05-04 20:05 | 56.67584 | 36.89793 | 15277 ft | 355 kts | 138° |
| 2026-05-04 20:05 | 56.65841 | 36.92951 | 14852 ft | 353 kts | 138° |
| 2026-05-04 20:05 | 56.64103 | 36.96094 | 14439 ft | 351 kts | 138° |
| 2026-05-04 20:05 | 56.62374 | 36.99213 | 14041 ft | 349 kts | 138° |
| 2026-05-04 20:06 | 56.60656 | 37.02304 | 13642 ft | 347 kts | 138° |
| 2026-05-04 20:06 | 56.58941 | 37.05388 | 13215 ft | 345 kts | 138° |
| 2026-05-04 20:06 | 56.57241 | 37.08439 | 12765 ft | 343 kts | 138° |
| 2026-05-04 20:06 | 56.55554 | 37.11461 | 12466 ft | 336 kts | 138° |
| 2026-05-04 20:07 | 56.53912 | 37.14403 | 12332 ft | 326 kts | 138° |
| 2026-05-04 20:07 | 56.52241 | 37.17076 | 12135 ft | 315 kts | 149° |
| 2026-05-04 20:07 | 56.50353 | 37.18869 | 11813 ft | 307 kts | 164° |
| 2026-05-04 20:07 | 56.48307 | 37.19830 | 11457 ft | 303 kts | 171° |
| 2026-05-04 20:08 | 56.46290 | 37.20839 | 11218 ft | 300 kts | 159° |
| 2026-05-04 20:08 | 56.44528 | 37.22876 | 10890 ft | 302 kts | 145° |
| 2026-05-04 20:08 | 56.42885 | 37.25241 | 10413 ft | 301 kts | 144° |
| 2026-05-04 20:08 | 56.41264 | 37.27613 | 9931 ft | 299 kts | 144° |
| 2026-05-04 20:09 | 56.39656 | 37.29977 | 9421 ft | 297 kts | 144° |
| 2026-05-04 20:09 | 56.38051 | 37.32326 | 8904 ft | 295 kts | 144° |
| 2026-05-04 20:09 | 56.36460 | 37.34642 | 8375 ft | 293 kts | 144° |
| 2026-05-04 20:09 | 56.34878 | 37.36938 | 7749 ft | 290 kts | 144° |
| 2026-05-04 20:10 | 56.33310 | 37.39204 | 7204 ft | 287 kts | 144° |
| 2026-05-04 20:10 | 56.31753 | 37.41445 | 6710 ft | 286 kts | 144° |
| 2026-05-04 20:10 | 56.30204 | 37.43680 | 6226 ft | 284 kts | 144° |
| 2026-05-04 20:10 | 56.28670 | 37.45897 | 5619 ft | 282 kts | 145° |
| 2026-05-04 20:11 | 56.27153 | 37.48085 | 5112 ft | 274 kts | 145° |
| 2026-05-04 20:11 | 56.25727 | 37.50147 | 4987 ft | 251 kts | 146° |
| 2026-05-04 20:11 | 56.24432 | 37.52018 | 4986 ft | 235 kts | 146° |
| 2026-05-04 20:11 | 56.23163 | 37.53841 | 4993 ft | 233 kts | 146° |
| 2026-05-04 20:12 | 56.21898 | 37.55652 | 4992 ft | 232 kts | 146° |
| 2026-05-04 20:12 | 56.20636 | 37.57458 | 4996 ft | 232 kts | 146° |
| 2026-05-04 20:12 | 56.19405 | 37.59342 | 4995 ft | 234 kts | 138° |
| 2026-05-04 20:12 | 56.18268 | 37.61450 | 4949 ft | 236 kts | 139° |
| 2026-05-04 20:13 | 56.17129 | 37.63543 | 4757 ft | 233 kts | 139° |
| 2026-05-04 20:13 | 56.15958 | 37.65548 | 4549 ft | 230 kts | 150° |
| 2026-05-04 20:13 | 56.14547 | 37.66676 | 4438 ft | 220 kts | 168° |
| 2026-05-04 20:13 | 56.13111 | 37.67468 | 4388 ft | 210 kts | 168° |
| 2026-05-04 20:14 | 56.11747 | 37.68228 | 4332 ft | 201 kts | 168° |
| 2026-05-04 20:14 | 56.10415 | 37.68964 | 4293 ft | 199 kts | 168° |
| 2026-05-04 20:14 | 56.09093 | 37.69686 | 4244 ft | 198 kts | 168° |
| 2026-05-04 20:14 | 56.07775 | 37.70404 | 4205 ft | 198 kts | 168° |
| 2026-05-04 20:15 | 56.06470 | 37.71112 | 4160 ft | 198 kts | 169° |
| 2026-05-04 20:15 | 56.05150 | 37.71748 | 4116 ft | 194 kts | 178° |
| 2026-05-04 20:15 | 56.03825 | 37.71691 | 4073 ft | 189 kts | 197° |
| 2026-05-04 20:15 | 56.02614 | 37.70873 | 3962 ft | 186 kts | 214° |
| 2026-05-04 20:16 | 56.01620 | 37.69388 | 3615 ft | 189 kts | 232° |
| 2026-05-04 20:16 | 56.00984 | 37.67403 | 3458 ft | 179 kts | 248° |
| 2026-05-04 20:16 | 56.00659 | 37.65331 | 3127 ft | 171 kts | 253° |
| 2026-05-04 20:16 | 56.00369 | 37.63343 | 2822 ft | 166 kts | 252° |
| 2026-05-04 20:17 | 56.00082 | 37.61379 | 2585 ft | 150 kts | 252° |
| 2026-05-04 20:17 | 55.99827 | 37.59642 | 2381 ft | 139 kts | 251° |
| 2026-05-04 20:17 | 55.99584 | 37.58000 | 2196 ft | 135 kts | 251° |
| 2026-05-04 20:17 | 55.99347 | 37.56391 | 2020 ft | 133 kts | 251° |
| 2026-05-04 20:18 | 55.99113 | 37.54811 | 1850 ft | 133 kts | 251° |
| 2026-05-04 20:18 | 55.98879 | 37.53224 | 1696 ft | 132 kts | 250° |
| 2026-05-04 20:18 | 55.98643 | 37.51635 | 1497 ft | 134 kts | 251° |
| 2026-05-04 20:18 | 55.98405 | 37.50023 | 1311 ft | 135 kts | 252° |
| 2026-05-04 20:19 | 55.98165 | 37.48406 | 1135 ft | 136 kts | 254° |
| 2026-05-04 20:19 | 55.97927 | 37.46770 | 959 ft | 136 kts | 253° |
| 2026-05-04 20:19 | 55.97664 | 37.45140 | 764 ft | 136 kts | 253° |
| 2026-05-04 20:19 | 55.97466 | 37.43495 | 650 ft | 133 kts | 255° |
| 2026-05-04 20:20 | 55.97172 | 37.42032 | 641 ft | 104 kts | 247° |
| 2026-05-04 20:20 | 55.97070 | 37.40974 | 645 ft | 76 kts | 263° |